sensor_id;sensor_type;location;lat;lon;timestamp;pressure;altitude;pressure_sealevel;temperature;humidity
69751;BME280;57335;52.288;6.056;2023-03-19T00:02:11;101078.31;;;10.71;99.39
69751;BME280;57335;52.288;6.056;2023-03-19T00:04:46;101077.28;;;10.72;99.50
69751;BME280;57335;52.288;6.056;2023-03-19T00:07:14;101072.84;;;10.79;99.03
69751;BME280;57335;52.288;6.056;2023-03-19T00:09:42;101077.50;;;10.77;98.62
69751;BME280;57335;52.288;6.056;2023-03-19T00:12:10;101079.13;;;10.85;98.38
69751;BME280;57335;52.288;6.056;2023-03-19T00:14:37;101081.53;;;10.93;97.67
69751;BME280;57335;52.288;6.056;2023-03-19T00:17:03;101079.31;;;10.96;97.88
69751;BME280;57335;52.288;6.056;2023-03-19T00:19:30;101081.31;;;11.01;99.16
69751;BME280;57335;52.288;6.056;2023-03-19T00:21:56;101088.78;;;11.04;99.05
69751;BME280;57335;52.288;6.056;2023-03-19T00:24:22;101090.59;;;11.04;99.56
69751;BME280;57335;52.288;6.056;2023-03-19T00:26:49;101085.94;;;10.92;100.00
69751;BME280;57335;52.288;6.056;2023-03-19T00:29:16;101084.53;;;10.90;100.00
69751;BME280;57335;52.288;6.056;2023-03-19T00:31:42;101087.97;;;10.90;100.00
69751;BME280;57335;52.288;6.056;2023-03-19T00:34:08;101095.84;;;10.90;100.00
69751;BME280;57335;52.288;6.056;2023-03-19T00:36:35;101086.16;;;10.84;100.00
69751;BME280;57335;52.288;6.056;2023-03-19T00:39:02;101089.81;;;10.83;100.00
69751;BME280;57335;52.288;6.056;2023-03-19T00:41:29;101087.56;;;10.80;100.00
69751;BME280;57335;52.288;6.056;2023-03-19T00:43:56;101092.19;;;10.78;100.00
69751;BME280;57335;52.288;6.056;2023-03-19T00:46:23;101091.41;;;10.77;100.00
69751;BME280;57335;52.288;6.056;2023-03-19T00:48:50;101091.41;;;10.77;100.00
69751;BME280;57335;52.288;6.056;2023-03-19T00:51:17;101086.97;;;10.71;100.00
69751;BME280;57335;52.288;6.056;2023-03-19T00:53:43;101095.44;;;10.67;100.00
69751;BME280;57335;52.288;6.056;2023-03-19T00:56:11;101092.00;;;10.66;100.00
69751;BME280;57335;52.288;6.056;2023-03-19T00:58:39;101086.38;;;10.63;100.00
69751;BME280;57335;52.288;6.056;2023-03-19T01:01:07;101084.13;;;10.60;100.00
69751;BME280;57335;52.288;6.056;2023-03-19T01:03:34;101093.81;;;10.59;100.00
69751;BME280;57335;52.288;6.056;2023-03-19T01:06:00;101096.00;;;10.55;100.00
69751;BME280;57335;52.288;6.056;2023-03-19T01:08:27;101088.94;;;10.49;100.00
69751;BME280;57335;52.288;6.056;2023-03-19T01:10:53;101090.16;;;10.47;100.00
69751;BME280;57335;52.288;6.056;2023-03-19T01:13:19;101098.22;;;10.45;100.00
69751;BME280;57335;52.288;6.056;2023-03-19T01:15:46;101093.97;;;10.44;100.00
69751;BME280;57335;52.288;6.056;2023-03-19T01:18:12;101090.75;;;10.42;100.00
69751;BME280;57335;52.288;6.056;2023-03-19T01:20:39;101085.72;;;10.41;100.00
69751;BME280;57335;52.288;6.056;2023-03-19T01:23:06;101090.97;;;10.41;100.00
69751;BME280;57335;52.288;6.056;2023-03-19T01:25:33;101095.38;;;10.40;100.00
69751;BME280;57335;52.288;6.056;2023-03-19T01:28:00;101082.88;;;10.35;100.00
69751;BME280;57335;52.288;6.056;2023-03-19T01:30:26;101087.72;;;10.38;100.00
69751;BME280;57335;52.288;6.056;2023-03-19T01:32:53;101087.50;;;10.33;100.00
69751;BME280;57335;52.288;6.056;2023-03-19T01:35:19;101090.94;;;10.34;100.00
69751;BME280;57335;52.288;6.056;2023-03-19T01:37:46;101083.28;;;10.32;100.00
69751;BME280;57335;52.288;6.056;2023-03-19T01:40:15;101088.09;;;10.29;100.00
69751;BME280;57335;52.288;6.056;2023-03-19T01:42:55;101085.84;;;10.26;100.00
69751;BME280;57335;52.288;6.056;2023-03-19T01:45:33;101086.81;;;10.18;100.00
69751;BME280;57335;52.288;6.056;2023-03-19T01:48:00;101084.81;;;10.13;100.00
69751;BME280;57335;52.288;6.056;2023-03-19T01:50:39;101084.97;;;10.05;100.00
69751;BME280;57335;52.288;6.056;2023-03-19T01:53:08;101086.75;;;9.98;100.00
69751;BME280;57335;52.288;6.056;2023-03-19T01:55:39;101087.53;;;9.92;100.00
69751;BME280;57335;52.288;6.056;2023-03-19T01:58:06;101086.72;;;9.85;100.00
69751;BME280;57335;52.288;6.056;2023-03-19T02:00:34;101078.22;;;9.76;100.00
69751;BME280;57335;52.288;6.056;2023-03-19T02:03:01;101085.44;;;9.74;100.00
69751;BME280;57335;52.288;6.056;2023-03-19T02:05:28;101088.66;;;9.69;100.00
69751;BME280;57335;52.288;6.056;2023-03-19T02:07:59;101088.66;;;9.69;100.00
69751;BME280;57335;52.288;6.056;2023-03-19T02:10:28;101082.19;;;9.65;100.00
69751;BME280;57335;52.288;6.056;2023-03-19T02:12:56;101085.00;;;9.64;100.00
69751;BME280;57335;52.288;6.056;2023-03-19T02:15:22;101089.44;;;9.63;100.00
69751;BME280;57335;52.288;6.056;2023-03-19T02:17:48;101089.44;;;9.63;100.00
69751;BME280;57335;52.288;6.056;2023-03-19T02:20:34;101093.03;;;9.62;100.00
69751;BME280;57335;52.288;6.056;2023-03-19T02:23:12;101090.81;;;9.59;100.00
69751;BME280;57335;52.288;6.056;2023-03-19T02:28:10;101085.75;;;9.51;100.00
69751;BME280;57335;52.288;6.056;2023-03-19T02:30:37;101087.34;;;9.52;100.00
69751;BME280;57335;52.288;6.056;2023-03-19T02:33:04;101086.09;;;9.48;100.00
69751;BME280;57335;52.288;6.056;2023-03-19T02:35:32;101092.97;;;9.49;100.00
69751;BME280;57335;52.288;6.056;2023-03-19T02:38:00;101090.72;;;9.46;100.00
69751;BME280;57335;52.288;6.056;2023-03-19T02:40:30;101092.94;;;9.42;100.00
69751;BME280;57335;52.288;6.056;2023-03-19T02:42:57;101098.34;;;9.41;100.00
69751;BME280;57335;52.288;6.056;2023-03-19T02:45:28;101093.28;;;9.32;100.00
69751;BME280;57335;52.288;6.056;2023-03-19T02:47:55;101087.19;;;9.25;100.00
69751;BME280;57335;52.288;6.056;2023-03-19T02:50:21;101094.22;;;9.25;100.00
69751;BME280;57335;52.288;6.056;2023-03-19T02:52:48;101081.72;;;9.20;100.00
69751;BME280;57335;52.288;6.056;2023-03-19T02:55:15;101078.47;;;9.18;100.00
69751;BME280;57335;52.288;6.056;2023-03-19T02:57:41;101081.72;;;9.20;100.00
69751;BME280;57335;52.288;6.056;2023-03-19T03:00:08;101090.19;;;9.22;100.00
69751;BME280;57335;52.288;6.056;2023-03-19T03:02:35;101095.22;;;9.24;100.00
69751;BME280;57335;52.288;6.056;2023-03-19T03:05:01;101096.03;;;9.24;100.00
69751;BME280;57335;52.288;6.056;2023-03-19T03:07:27;101102.44;;;9.22;100.00
69751;BME280;57335;52.288;6.056;2023-03-19T03:09:54;101097.22;;;9.22;100.00
69751;BME280;57335;52.288;6.056;2023-03-19T03:12:20;101099.38;;;9.18;100.00
69751;BME280;57335;52.288;6.056;2023-03-19T03:14:46;101093.34;;;9.17;100.00
69751;BME280;57335;52.288;6.056;2023-03-19T03:17:13;101100.03;;;9.20;100.00
69751;BME280;57335;52.288;6.056;2023-03-19T03:19:39;101094.81;;;9.20;100.00
69751;BME280;57335;52.288;6.056;2023-03-19T03:22:06;101111.72;;;9.24;100.00
69751;BME280;57335;52.288;6.056;2023-03-19T03:24:32;101108.09;;;9.25;100.00
69751;BME280;57335;52.288;6.056;2023-03-19T03:26:59;101115.75;;;9.27;100.00
69751;BME280;57335;52.288;6.056;2023-03-19T03:29:25;101116.34;;;9.22;100.00
69751;BME280;57335;52.288;6.056;2023-03-19T03:31:52;101121.78;;;9.27;100.00
69751;BME280;57335;52.288;6.056;2023-03-19T03:34:18;101121.78;;;9.27;100.00
69751;BME280;57335;52.288;6.056;2023-03-19T03:36:44;101129.91;;;9.32;100.00
69751;BME280;57335;52.288;6.056;2023-03-19T03:39:11;101125.47;;;9.33;100.00
69751;BME280;57335;52.288;6.056;2023-03-19T03:41:38;101122.06;;;9.32;100.00
69751;BME280;57335;52.288;6.056;2023-03-19T03:44:04;101123.66;;;9.33;100.00
69751;BME280;57335;52.288;6.056;2023-03-19T03:46:31;101132.28;;;9.34;100.00
69751;BME280;57335;52.288;6.056;2023-03-19T03:48:57;101130.88;;;9.31;100.00
69751;BME280;57335;52.288;6.056;2023-03-19T03:51:23;101125.22;;;9.28;100.00
69751;BME280;57335;52.288;6.056;2023-03-19T03:53:50;101122.19;;;9.24;100.00
69751;BME280;57335;52.288;6.056;2023-03-19T03:56:16;101125.53;;;9.18;100.00
69751;BME280;57335;52.288;6.056;2023-03-19T03:58:42;101132.34;;;9.12;100.00
69751;BME280;57335;52.288;6.056;2023-03-19T04:01:16;101131.53;;;9.12;100.00
69751;BME280;57335;52.288;6.056;2023-03-19T04:03:42;101123.28;;;9.08;100.00
69751;BME280;57335;52.288;6.056;2023-03-19T04:06:14;101130.09;;;9.09;100.00
69751;BME280;57335;52.288;6.056;2023-03-19T04:08:41;101128.88;;;9.05;100.00
69751;BME280;57335;52.288;6.056;2023-03-19T04:11:08;101131.66;;;9.04;100.00
69751;BME280;57335;52.288;6.056;2023-03-19T04:13:35;101128.81;;;8.98;100.00
69751;BME280;57335;52.288;6.056;2023-03-19T04:16:06;101128.03;;;8.98;100.00
69751;BME280;57335;52.288;6.056;2023-03-19T04:18:33;101126.56;;;8.95;100.00
69751;BME280;57335;52.288;6.056;2023-03-19T04:20:59;101129.97;;;8.96;100.00
69751;BME280;57335;52.288;6.056;2023-03-19T04:23:26;101128.38;;;8.95;100.00
69751;BME280;57335;52.288;6.056;2023-03-19T04:25:57;101135.22;;;8.96;100.00
69751;BME280;57335;52.288;6.056;2023-03-19T04:28:24;101139.63;;;8.95;100.00
69751;BME280;57335;52.288;6.056;2023-03-19T04:30:51;101132.56;;;8.89;100.00
69751;BME280;57335;52.288;6.056;2023-03-19T04:33:17;101134.19;;;8.90;100.00
69751;BME280;57335;52.288;6.056;2023-03-19T04:35:43;101142.38;;;8.87;100.00
69751;BME280;57335;52.288;6.056;2023-03-19T04:38:10;101131.88;;;8.81;100.00
69751;BME280;57335;52.288;6.056;2023-03-19T04:40:36;101130.44;;;8.78;100.00
69751;BME280;57335;52.288;6.056;2023-03-19T04:43:03;101137.84;;;8.74;100.00
69751;BME280;57335;52.288;6.056;2023-03-19T04:45:29;101137.22;;;8.72;100.00
69751;BME280;57335;52.288;6.056;2023-03-19T04:47:55;101139.63;;;8.74;100.00
69751;BME280;57335;52.288;6.056;2023-03-19T04:50:22;101137.03;;;8.74;100.00
69751;BME280;57335;52.288;6.056;2023-03-19T04:52:48;101137.84;;;8.74;100.00
69751;BME280;57335;52.288;6.056;2023-03-19T04:55:14;101139.84;;;8.72;100.00
69751;BME280;57335;52.288;6.056;2023-03-19T04:57:42;101142.00;;;8.69;100.00
69751;BME280;57335;52.288;6.056;2023-03-19T05:00:09;101139.75;;;8.66;100.00
69751;BME280;57335;52.288;6.056;2023-03-19T05:02:35;101141.97;;;8.62;100.00
69751;BME280;57335;52.288;6.056;2023-03-19T05:05:02;101147.34;;;8.61;100.00
69751;BME280;57335;52.288;6.056;2023-03-19T05:07:31;101150.78;;;8.61;100.00
69751;BME280;57335;52.288;6.056;2023-03-19T05:09:58;101155.03;;;8.62;100.00
69751;BME280;57335;52.288;6.056;2023-03-19T05:12:24;101144.75;;;8.61;100.00
69751;BME280;57335;52.288;6.056;2023-03-19T05:14:50;101145.19;;;8.64;100.00
69751;BME280;57335;52.288;6.056;2023-03-19T05:17:17;101147.41;;;8.67;100.00
69751;BME280;57335;52.288;6.056;2023-03-19T05:19:43;101154.06;;;8.70;100.00
69751;BME280;57335;52.288;6.056;2023-03-19T05:22:09;101151.66;;;8.68;100.00
69751;BME280;57335;52.288;6.056;2023-03-19T05:24:36;101151.84;;;8.67;100.00
69751;BME280;57335;52.288;6.056;2023-03-19T05:27:03;101161.84;;;8.63;100.00
69751;BME280;57335;52.288;6.056;2023-03-19T05:29:29;101159.00;;;8.58;100.00
69751;BME280;57335;52.288;6.056;2023-03-19T05:31:55;101159.69;;;8.52;100.00
69751;BME280;57335;52.288;6.056;2023-03-19T05:34:22;101173.50;;;8.46;100.00
69751;BME280;57335;52.288;6.056;2023-03-19T05:36:48;101166.84;;;8.43;100.00
69751;BME280;57335;52.288;6.056;2023-03-19T05:39:16;101177.66;;;8.40;100.00
69751;BME280;57335;52.288;6.056;2023-03-19T05:41:42;101171.97;;;8.36;100.00
69751;BME280;57335;52.288;6.056;2023-03-19T05:44:08;101165.50;;;8.32;100.00
69751;BME280;57335;52.288;6.056;2023-03-19T05:46:35;101173.97;;;8.34;100.00
69751;BME280;57335;52.288;6.056;2023-03-19T05:49:02;101175.94;;;8.32;100.00
69751;BME280;57335;52.288;6.056;2023-03-19T05:51:28;101178.38;;;8.34;100.00
69751;BME280;57335;52.288;6.056;2023-03-19T05:53:55;101183.22;;;8.37;100.00
69751;BME280;57335;52.288;6.056;2023-03-19T05:56:21;101180.78;;;8.35;100.00
69751;BME280;57335;52.288;6.056;2023-03-19T05:58:47;101187.47;;;8.38;100.00
69751;BME280;57335;52.288;6.056;2023-03-19T06:01:14;101195.75;;;8.42;100.00
69751;BME280;57335;52.288;6.056;2023-03-19T06:03:40;101193.50;;;8.38;100.00
69751;BME280;57335;52.288;6.056;2023-03-19T06:06:07;101200.81;;;8.43;100.00
69751;BME280;57335;52.288;6.056;2023-03-19T06:08:33;101186.47;;;8.39;100.00
69751;BME280;57335;52.288;6.056;2023-03-19T06:11:00;101204.03;;;8.45;100.00
69751;BME280;57335;52.288;6.056;2023-03-19T06:13:26;101187.91;;;8.42;100.00
69751;BME280;57335;52.288;6.056;2023-03-19T06:15:52;101191.78;;;8.46;100.00
69751;BME280;57335;52.288;6.056;2023-03-19T06:18:19;101199.97;;;8.57;100.00
69751;BME280;57335;52.288;6.056;2023-03-19T06:20:46;101205.34;;;8.71;100.00
69751;BME280;57335;52.288;6.056;2023-03-19T06:23:13;101207.03;;;8.78;100.00
69751;BME280;57335;52.288;6.056;2023-03-19T06:25:41;101203.13;;;8.89;100.00
69751;BME280;57335;52.288;6.056;2023-03-19T06:28:08;101216.03;;;9.12;100.00
69751;BME280;57335;52.288;6.056;2023-03-19T06:30:34;101217.50;;;9.43;100.00
69751;BME280;57335;52.288;6.056;2023-03-19T06:33:01;101219.97;;;9.79;100.00
69751;BME280;57335;52.288;6.056;2023-03-19T06:35:28;101229.72;;;10.27;100.00
69751;BME280;57335;52.288;6.056;2023-03-19T06:37:54;101219.63;;;10.66;100.00
69751;BME280;57335;52.288;6.056;2023-03-19T06:40:20;101227.34;;;10.87;100.00
69751;BME280;57335;52.288;6.056;2023-03-19T06:42:47;101239.66;;;10.93;100.00
69751;BME280;57335;52.288;6.056;2023-03-19T06:45:14;101230.16;;;10.92;100.00
69751;BME280;57335;52.288;6.056;2023-03-19T06:47:42;101232.59;;;10.87;100.00
69751;BME280;57335;52.288;6.056;2023-03-19T06:50:09;101233.75;;;10.65;99.99
69751;BME280;57335;52.288;6.056;2023-03-19T06:52:36;101242.97;;;10.54;100.00
69751;BME280;57335;52.288;6.056;2023-03-19T06:55:04;101237.44;;;10.35;100.00
69751;BME280;57335;52.288;6.056;2023-03-19T06:57:30;101248.44;;;10.24;100.00
69751;BME280;57335;52.288;6.056;2023-03-19T06:59:57;101240.94;;;10.14;100.00
69751;BME280;57335;52.288;6.056;2023-03-19T07:02:23;101256.25;;;10.11;100.00
69751;BME280;57335;52.288;6.056;2023-03-19T07:04:49;101259.03;;;10.09;100.00
69751;BME280;57335;52.288;6.056;2023-03-19T07:07:16;101251.63;;;10.13;100.00
69751;BME280;57335;52.288;6.056;2023-03-19T07:09:42;101255.91;;;10.21;100.00
69751;BME280;57335;52.288;6.056;2023-03-19T07:12:09;101262.06;;;10.41;100.00
69751;BME280;57335;52.288;6.056;2023-03-19T07:14:35;101256.94;;;10.68;100.00
69751;BME280;57335;52.288;6.056;2023-03-19T07:17:02;101253.34;;;10.82;100.00
69751;BME280;57335;52.288;6.056;2023-03-19T07:19:28;101262.66;;;10.91;100.00
69751;BME280;57335;52.288;6.056;2023-03-19T07:21:54;101264.91;;;10.94;100.00
69751;BME280;57335;52.288;6.056;2023-03-19T07:24:21;101268.16;;;11.10;100.00
69751;BME280;57335;52.288;6.056;2023-03-19T07:26:47;101274.25;;;11.44;100.00
69751;BME280;57335;52.288;6.056;2023-03-19T07:29:14;101269.41;;;11.87;99.02
69751;BME280;57335;52.288;6.056;2023-03-19T07:31:40;101277.44;;;12.32;96.63
69751;BME280;57335;52.288;6.056;2023-03-19T07:34:06;101274.91;;;12.64;93.21
69751;BME280;57335;52.288;6.056;2023-03-19T07:36:33;101279.22;;;12.90;89.95
69751;BME280;57335;52.288;6.056;2023-03-19T07:38:59;101284.13;;;13.18;88.39
69751;BME280;57335;52.288;6.056;2023-03-19T07:41:25;101285.38;;;13.48;89.61
69751;BME280;57335;52.288;6.056;2023-03-19T07:43:52;101280.09;;;13.73;88.42
69751;BME280;57335;52.288;6.056;2023-03-19T07:46:18;101289.34;;;13.82;85.93
69751;BME280;57335;52.288;6.056;2023-03-19T07:48:45;101290.59;;;13.80;83.75
69751;BME280;57335;52.288;6.056;2023-03-19T07:51:11;101284.84;;;13.64;85.39
69751;BME280;57335;52.288;6.056;2023-03-19T07:53:37;101288.75;;;13.55;83.58
69751;BME280;57335;52.288;6.056;2023-03-19T07:56:04;101287.31;;;13.34;84.89
69751;BME280;57335;52.288;6.056;2023-03-19T07:58:30;101299.81;;;13.39;86.81
69751;BME280;57335;52.288;6.056;2023-03-19T08:00:57;101296.03;;;13.28;87.09
69751;BME280;57335;52.288;6.056;2023-03-19T08:03:23;101296.75;;;13.10;85.93
69751;BME280;57335;52.288;6.056;2023-03-19T08:05:50;101300.47;;;12.89;86.55
69751;BME280;57335;52.288;6.056;2023-03-19T08:08:17;101300.94;;;12.72;86.26
69751;BME280;57335;52.288;6.056;2023-03-19T08:10:43;101303.19;;;12.69;89.36
69751;BME280;57335;52.288;6.056;2023-03-19T08:13:10;101307.66;;;12.68;90.11
69751;BME280;57335;52.288;6.056;2023-03-19T08:15:36;101307.69;;;12.62;90.12
69751;BME280;57335;52.288;6.056;2023-03-19T08:18:03;101315.56;;;12.62;90.08
69751;BME280;57335;52.288;6.056;2023-03-19T08:20:30;101319.59;;;12.64;91.57
69751;BME280;57335;52.288;6.056;2023-03-19T08:22:56;101326.66;;;12.70;91.44
69751;BME280;57335;52.288;6.056;2023-03-19T08:25:23;101320.78;;;12.75;91.43
69751;BME280;57335;52.288;6.056;2023-03-19T08:27:50;101327.41;;;12.84;90.28
69751;BME280;57335;52.288;6.056;2023-03-19T08:30:16;101324.19;;;12.82;89.14
69751;BME280;57335;52.288;6.056;2023-03-19T08:32:43;101326.63;;;12.84;89.15
69751;BME280;57335;52.288;6.056;2023-03-19T08:35:10;101328.84;;;12.80;88.31
69751;BME280;57335;52.288;6.056;2023-03-19T08:37:36;101330.88;;;12.78;88.95
69751;BME280;57335;52.288;6.056;2023-03-19T08:40:04;101344.44;;;12.82;89.61
69751;BME280;57335;52.288;6.056;2023-03-19T08:42:31;101329.84;;;12.86;90.12
69751;BME280;57335;52.288;6.056;2023-03-19T08:44:57;101342.13;;;12.98;89.47
69751;BME280;57335;52.288;6.056;2023-03-19T08:47:24;101343.50;;;13.08;89.43
69751;BME280;57335;52.288;6.056;2023-03-19T08:49:50;101347.53;;;13.17;88.51
69751;BME280;57335;52.288;6.056;2023-03-19T08:52:18;101345.84;;;13.23;88.57
69751;BME280;57335;52.288;6.056;2023-03-19T08:54:44;101351.31;;;13.28;88.18
69751;BME280;57335;52.288;6.056;2023-03-19T08:57:11;101351.13;;;13.29;88.61
69751;BME280;57335;52.288;6.056;2023-03-19T08:59:37;101352.31;;;13.27;87.36
69751;BME280;57335;52.288;6.056;2023-03-19T09:02:05;101362.47;;;13.30;87.83
69751;BME280;57335;52.288;6.056;2023-03-19T09:04:32;101356.75;;;13.26;87.15
69751;BME280;57335;52.288;6.056;2023-03-19T09:06:58;101373.78;;;13.24;87.32
69751;BME280;57335;52.288;6.056;2023-03-19T09:09:24;101371.81;;;13.19;87.09
69751;BME280;57335;52.288;6.056;2023-03-19T09:11:51;101376.03;;;13.20;88.17
69751;BME280;57335;52.288;6.056;2023-03-19T09:14:17;101376.03;;;13.20;88.29
69751;BME280;57335;52.288;6.056;2023-03-19T09:16:44;101376.25;;;13.18;87.70
69751;BME280;57335;52.288;6.056;2023-03-19T09:19:10;101382.09;;;13.27;88.06
69751;BME280;57335;52.288;6.056;2023-03-19T09:21:37;101377.81;;;13.26;87.59
69751;BME280;57335;52.288;6.056;2023-03-19T09:24:03;101384.50;;;13.35;87.20
69751;BME280;57335;52.288;6.056;2023-03-19T09:26:29;101379.72;;;13.51;88.79
69751;BME280;57335;52.288;6.056;2023-03-19T09:28:56;101384.41;;;13.81;87.23
69751;BME280;57335;52.288;6.056;2023-03-19T09:31:23;101393.31;;;14.11;83.51
69751;BME280;57335;52.288;6.056;2023-03-19T09:33:49;101385.63;;;14.53;86.30
69751;BME280;57335;52.288;6.056;2023-03-19T09:36:16;101388.03;;;15.10;82.08
69751;BME280;57335;52.288;6.056;2023-03-19T09:38:43;101387.03;;;15.53;78.03
69751;BME280;57335;52.288;6.056;2023-03-19T09:41:18;101393.81;;;15.91;74.41
69751;BME280;57335;52.288;6.056;2023-03-19T09:43:51;101392.81;;;15.92;72.58
69751;BME280;57335;52.288;6.056;2023-03-19T09:46:40;101400.00;;;15.85;71.77
69751;BME280;57335;52.288;6.056;2023-03-19T09:49:13;101406.94;;;15.98;73.90
69751;BME280;57335;52.288;6.056;2023-03-19T09:51:54;101393.84;;;16.15;72.70
69751;BME280;57335;52.288;6.056;2023-03-19T09:54:43;101396.94;;;16.47;71.63
69751;BME280;57335;52.288;6.056;2023-03-19T09:57:11;101392.78;;;16.51;71.09
69751;BME280;57335;52.288;6.056;2023-03-19T09:59:40;101402.44;;;16.69;72.21
69751;BME280;57335;52.288;6.056;2023-03-19T10:11:29;101403.53;;;17.09;67.89
69751;BME280;57335;52.288;6.056;2023-03-19T10:13:42;101401.41;;;16.94;69.95
69751;BME280;57335;52.288;6.056;2023-03-19T10:16:20;101402.06;;;17.01;70.03
69751;BME280;57335;52.288;6.056;2023-03-19T10:18:50;101408.56;;;17.22;68.80
69751;BME280;57335;52.288;6.056;2023-03-19T10:21:32;101408.31;;;17.52;69.62
69751;BME280;57335;52.288;6.056;2023-03-19T10:24:04;101406.91;;;17.79;67.73
69751;BME280;57335;52.288;6.056;2023-03-19T10:26:33;101409.66;;;17.84;63.26
69751;BME280;57335;52.288;6.056;2023-03-19T10:29:13;101418.53;;;17.78;62.52
69751;BME280;57335;52.288;6.056;2023-03-19T10:32:04;101419.28;;;17.90;68.03
69751;BME280;57335;52.288;6.056;2023-03-19T10:34:35;101409.50;;;18.07;65.80
69751;BME280;57335;52.288;6.056;2023-03-19T10:37:13;101412.16;;;18.07;63.19
69751;BME280;57335;52.288;6.056;2023-03-19T10:39:43;101418.41;;;18.01;63.97
69751;BME280;57335;52.288;6.056;2023-03-19T10:47:37;101408.91;;;18.39;63.31
69751;BME280;57335;52.288;6.056;2023-03-19T10:50:04;101414.84;;;18.46;63.63
69751;BME280;57335;52.288;6.056;2023-03-19T10:52:33;101422.31;;;18.49;62.24
69751;BME280;57335;52.288;6.056;2023-03-19T10:55:04;101421.84;;;18.52;64.86
69751;BME280;57335;52.288;6.056;2023-03-19T10:57:32;101416.53;;;18.52;64.80
69751;BME280;57335;52.288;6.056;2023-03-19T11:00:04;101417.31;;;18.53;61.39
69751;BME280;57335;52.288;6.056;2023-03-19T11:02:31;101415.09;;;18.28;61.90
69751;BME280;57335;52.288;6.056;2023-03-19T11:07:54;101419.31;;;18.07;66.18
69751;BME280;57335;52.288;6.056;2023-03-19T11:10:23;101417.09;;;18.38;66.24
69751;BME280;57335;52.288;6.056;2023-03-19T11:12:54;101414.59;;;18.70;61.61
69751;BME280;57335;52.288;6.056;2023-03-19T11:15:23;101408.22;;;18.88;62.16
69751;BME280;57335;52.288;6.056;2023-03-19T11:17:59;101409.63;;;18.73;58.58
69751;BME280;57335;52.288;6.056;2023-03-19T11:22:55;101407.13;;;18.84;61.38
69751;BME280;57335;52.288;6.056;2023-03-19T11:25:39;101407.94;;;19.06;61.13
69751;BME280;57335;52.288;6.056;2023-03-19T11:28:10;101409.38;;;19.19;58.36
69751;BME280;57335;52.288;6.056;2023-03-19T11:36:10;101419.44;;;19.44;60.04
69751;BME280;57335;52.288;6.056;2023-03-19T11:38:52;101416.25;;;19.42;59.82
69751;BME280;57335;52.288;6.056;2023-03-19T11:41:45;101418.00;;;19.31;60.04
69751;BME280;57335;52.288;6.056;2023-03-19T11:52:45;101412.91;;;19.25;60.06
69751;BME280;57335;52.288;6.056;2023-03-19T11:55:36;101422.13;;;19.44;59.17
69751;BME280;57335;52.288;6.056;2023-03-19T12:00:50;101416.41;;;19.58;59.22
69751;BME280;57335;52.288;6.056;2023-03-19T12:06:27;101404.97;;;19.03;55.33
69751;BME280;57335;52.288;6.056;2023-03-19T12:09:02;101399.22;;;18.72;60.33
69751;BME280;57335;52.288;6.056;2023-03-19T12:11:45;101413.25;;;18.84;63.92
69751;BME280;57335;52.288;6.056;2023-03-19T12:14:30;101414.63;;;19.14;60.52
69751;BME280;57335;52.288;6.056;2023-03-19T12:17:15;101418.56;;;19.33;61.29
69751;BME280;57335;52.288;6.056;2023-03-19T12:27:43;101415.69;;;19.67;58.94
69751;BME280;57335;52.288;6.056;2023-03-19T12:35:54;101419.94;;;19.96;59.30
69751;BME280;57335;52.288;6.056;2023-03-19T12:38:38;101423.41;;;19.96;59.09
69751;BME280;57335;52.288;6.056;2023-03-19T12:41:10;101418.66;;;20.03;58.54
69751;BME280;57335;52.288;6.056;2023-03-19T12:44:03;101420.00;;;20.06;57.26
69751;BME280;57335;52.288;6.056;2023-03-19T12:52:22;101427.50;;;19.77;57.84
69751;BME280;57335;52.288;6.056;2023-03-19T12:55:13;101426.72;;;19.54;58.63
69751;BME280;57335;52.288;6.056;2023-03-19T12:57:43;101435.94;;;19.46;59.44
69751;BME280;57335;52.288;6.056;2023-03-19T13:00:30;101428.16;;;19.35;59.00
69751;BME280;57335;52.288;6.056;2023-03-19T13:05:38;101441.63;;;19.06;60.32
69751;BME280;57335;52.288;6.056;2023-03-19T13:08:18;101443.13;;;18.97;61.09
69751;BME280;57335;52.288;6.056;2023-03-19T13:10:47;101440.16;;;18.93;61.82
69751;BME280;57335;52.288;6.056;2023-03-19T13:13:40;101441.75;;;18.94;61.79
69751;BME280;57335;52.288;6.056;2023-03-19T13:18:56;101437.38;;;19.05;62.27
69751;BME280;57335;52.288;6.056;2023-03-19T13:21:29;101437.97;;;19.12;62.95
69751;BME280;57335;52.288;6.056;2023-03-19T13:24:45;101450.78;;;19.15;62.27
69751;BME280;57335;52.288;6.056;2023-03-19T13:26:48;101449.13;;;19.09;62.63
69751;BME280;57335;52.288;6.056;2023-03-19T13:29:20;101452.16;;;18.96;63.00
69751;BME280;57335;52.288;6.056;2023-03-19T13:31:48;101451.22;;;18.85;63.41
69751;BME280;57335;52.288;6.056;2023-03-19T13:34:20;101459.19;;;18.68;63.09
69751;BME280;57335;52.288;6.056;2023-03-19T13:36:59;101455.28;;;18.53;63.50
69751;BME280;57335;52.288;6.056;2023-03-19T13:39:29;101462.16;;;18.32;64.10
69751;BME280;57335;52.288;6.056;2023-03-19T13:42:09;101469.47;;;18.25;65.68
69751;BME280;57335;52.288;6.056;2023-03-19T14:03:27;101477.56;;;17.56;65.72
69751;BME280;57335;52.288;6.056;2023-03-19T14:05:56;101486.22;;;17.40;66.14
69751;BME280;57335;52.288;6.056;2023-03-19T14:08:28;101491.91;;;17.31;66.85
69751;BME280;57335;52.288;6.056;2023-03-19T14:10:58;101495.16;;;17.22;67.11
69751;BME280;57335;52.288;6.056;2023-03-19T14:13:31;101484.59;;;17.10;67.65
69751;BME280;57335;52.288;6.056;2023-03-19T14:16:13;101486.78;;;17.01;67.81
69751;BME280;57335;52.288;6.056;2023-03-19T14:18:41;101489.22;;;16.91;68.10
69751;BME280;57335;52.288;6.056;2023-03-19T14:21:41;101492.47;;;16.81;68.53
69751;BME280;57335;52.288;6.056;2023-03-19T14:24:36;101486.47;;;16.74;69.01